createdAt,value
2022-10-05T00:00:47.166Z,18.06
2022-10-05T00:03:14.426Z,17.99
2022-10-05T00:05:45.372Z,17.97
2022-10-05T00:08:17.726Z,17.99
2022-10-05T00:10:49.150Z,18.05
2022-10-05T00:13:20.621Z,18.06
2022-10-05T00:15:51.614Z,18.06
2022-10-05T00:18:20.665Z,18.05
2022-10-05T00:20:49.195Z,18.09
2022-10-05T00:23:19.852Z,18.17
2022-10-05T00:25:47.742Z,18.13
2022-10-05T00:28:20.075Z,18.22
2022-10-05T00:30:47.647Z,18.15
2022-10-05T00:33:14.927Z,18.16
2022-10-05T00:35:42.267Z,18.16
2022-10-05T00:38:09.549Z,18.12
2022-10-05T00:40:55.775Z,18.08
2022-10-05T00:43:41.527Z,18.01
2022-10-05T00:46:23.049Z,18.00
2022-10-05T00:48:56.399Z,18.00
2022-10-05T00:51:28.545Z,18.01
2022-10-05T00:54:08.125Z,17.98
2022-10-05T00:56:50.536Z,18.01
2022-10-05T00:59:23.811Z,18.06
2022-10-05T01:02:08.708Z,18.07
2022-10-05T01:04:50.831Z,18.00
2022-10-05T01:07:20.891Z,17.98
2022-10-05T01:10:05.464Z,18.01
2022-10-05T01:13:10.241Z,18.02
2022-10-05T01:15:47.103Z,18.04
2022-10-05T01:18:24.771Z,18.00
2022-10-05T01:21:14.617Z,18.01
2022-10-05T01:24:05.176Z,18.00
2022-10-05T01:26:44.778Z,18.01
2022-10-05T01:29:17.912Z,17.91
2022-10-05T01:31:56.756Z,18.01
2022-10-05T01:34:42.625Z,17.95
2022-10-05T01:37:38.934Z,17.97
2022-10-05T01:40:31.986Z,17.96
2022-10-05T01:43:11.393Z,18.01
2022-10-05T01:46:21.612Z,18.03
2022-10-05T01:49:11.973Z,18.08
2022-10-05T01:51:55.701Z,18.05
2022-10-05T01:54:51.952Z,18.07
2022-10-05T01:57:24.779Z,18.09
2022-10-05T02:00:15.234Z,18.09
2022-10-05T02:02:50.680Z,18.13
2022-10-05T02:05:26.342Z,18.16
2022-10-05T02:07:58.686Z,18.15
2022-10-05T02:10:57.617Z,18.18
2022-10-05T02:13:52.721Z,18.19
2022-10-05T02:16:34.899Z,18.17
2022-10-05T02:19:21.799Z,18.19
2022-10-05T02:22:12.992Z,18.18
2022-10-05T02:24:50.859Z,18.13
2022-10-05T02:27:24.551Z,18.09
2022-10-05T02:29:56.789Z,18.06
2022-10-05T02:32:28.474Z,18.07
2022-10-05T02:35:04.233Z,18.08
2022-10-05T02:37:43.739Z,18.08
2022-10-05T02:40:29.141Z,18.06
2022-10-05T02:43:07.918Z,18.10
2022-10-05T02:46:08.092Z,18.06
2022-10-05T02:48:56.380Z,17.98
2022-10-05T02:51:37.709Z,17.93
2022-10-05T02:54:38.062Z,17.99
2022-10-05T02:57:20.277Z,18.01
2022-10-05T03:00:08.314Z,18.05
2022-10-05T03:02:43.297Z,18.08
2022-10-05T03:05:35.083Z,18.00
2022-10-05T03:08:13.680Z,17.96
2022-10-05T03:10:53.659Z,17.86
2022-10-05T03:13:39.398Z,17.92
2022-10-05T03:16:07.508Z,17.85
2022-10-05T03:19:12.017Z,17.83
2022-10-05T03:21:59.054Z,17.85
2022-10-05T03:24:51.921Z,17.84
2022-10-05T03:27:28.777Z,17.84
2022-10-05T03:30:09.746Z,17.87
2022-10-05T03:32:47.775Z,17.86
2022-10-05T03:35:20.237Z,17.83
2022-10-05T03:37:56.103Z,17.84
2022-10-05T03:40:36.854Z,17.76
2022-10-05T03:43:16.707Z,17.70
2022-10-05T03:46:06.411Z,17.69
2022-10-05T03:48:52.627Z,17.68
2022-10-05T03:51:23.506Z,17.74
2022-10-05T03:54:00.777Z,17.78
2022-10-05T03:56:37.337Z,17.83
2022-10-05T03:59:21.914Z,17.97
2022-10-05T04:01:57.010Z,18.04
2022-10-05T04:04:33.041Z,18.03
2022-10-05T04:07:01.976Z,17.96
2022-10-05T04:09:35.427Z,17.87
2022-10-05T04:12:33.410Z,17.87
2022-10-05T04:15:08.102Z,17.99
2022-10-05T04:17:42.489Z,18.06
2022-10-05T04:20:22.816Z,18.06
2022-10-05T04:22:50.185Z,18.09
2022-10-05T04:25:22.839Z,17.96
2022-10-05T04:28:16.504Z,17.83
2022-10-05T04:30:50.222Z,17.82
2022-10-05T04:33:17.670Z,17.76
2022-10-05T04:36:05.055Z,17.72
2022-10-05T04:38:51.763Z,17.71
2022-10-05T04:41:36.815Z,17.69
2022-10-05T04:44:35.235Z,17.74
2022-10-05T04:47:50.697Z,17.72
2022-10-05T04:50:18.056Z,17.64
2022-10-05T04:53:00.596Z,17.96
2022-10-05T04:55:52.503Z,17.84
2022-10-05T04:58:55.533Z,17.79
2022-10-05T05:02:02.252Z,17.84
2022-10-05T05:04:36.045Z,17.79
2022-10-05T05:07:32.099Z,17.69
2022-10-05T05:10:39.553Z,17.69
2022-10-05T05:13:46.553Z,17.80
2022-10-05T05:16:39.870Z,17.70
2022-10-05T05:19:37.564Z,17.72
2022-10-05T05:22:08.075Z,17.70
2022-10-05T05:24:54.491Z,17.69
2022-10-05T05:28:06.409Z,17.66
2022-10-05T05:30:44.206Z,17.66
2022-10-05T05:33:27.778Z,17.68
2022-10-05T05:36:02.599Z,17.71
2022-10-05T05:38:43.378Z,17.69
2022-10-05T05:41:13.883Z,17.64
2022-10-05T05:44:22.995Z,17.63
2022-10-05T05:47:20.800Z,17.59
2022-10-05T05:50:10.404Z,17.59
2022-10-05T05:52:45.227Z,17.55
2022-10-05T05:55:30.351Z,17.54
2022-10-05T05:58:27.454Z,17.54
2022-10-05T06:01:04.320Z,17.55
2022-10-05T06:03:44.381Z,17.55
2022-10-05T06:06:17.052Z,17.48
2022-10-05T06:08:52.431Z,17.50
2022-10-05T06:11:40.216Z,17.55
2022-10-05T06:14:34.093Z,17.57
2022-10-05T06:17:12.095Z,17.67
2022-10-05T06:19:40.584Z,17.69
2022-10-05T06:22:15.153Z,17.71
2022-10-05T06:25:28.947Z,17.77
2022-10-05T06:28:14.110Z,17.73
2022-10-05T06:31:07.426Z,17.76
2022-10-05T06:33:53.964Z,17.79
2022-10-05T06:36:38.917Z,17.88
2022-10-05T06:39:12.493Z,17.89
2022-10-05T06:41:48.516Z,17.80
2022-10-05T06:44:24.891Z,17.77
2022-10-05T06:47:25.460Z,17.77
2022-10-05T06:50:42.655Z,17.90
2022-10-05T06:53:33.684Z,17.92
2022-10-05T06:56:04.082Z,18.06
2022-10-05T06:59:07.307Z,18.10
2022-10-05T07:01:58.679Z,18.14
2022-10-05T07:04:39.234Z,18.18
2022-10-05T07:07:42.472Z,18.30
2022-10-05T07:10:29.170Z,18.49
2022-10-05T07:13:21.539Z,18.67
2022-10-05T07:16:01.614Z,18.63
2022-10-05T07:18:46.516Z,18.68
2022-10-05T07:21:53.367Z,18.62
2022-10-05T07:24:32.954Z,18.78
2022-10-05T07:27:06.360Z,18.93
2022-10-05T07:29:48.400Z,19.10
2022-10-05T07:32:34.729Z,19.31
2022-10-05T07:35:32.380Z,19.42
2022-10-05T07:38:38.643Z,19.58
2022-10-05T07:41:17.399Z,19.76
2022-10-05T07:44:03.390Z,19.78
2022-10-05T07:47:02.117Z,19.83
2022-10-05T07:49:42.337Z,20.08
2022-10-05T07:52:23.863Z,20.23
2022-10-05T07:55:09.331Z,20.08
2022-10-05T07:58:05.089Z,20.57
2022-10-05T08:01:02.002Z,21.88
2022-10-05T08:03:47.272Z,22.31
2022-10-05T08:06:49.035Z,21.82
2022-10-05T08:09:26.987Z,21.93
2022-10-05T08:12:06.098Z,21.92
2022-10-05T08:15:02.660Z,21.64
2022-10-05T08:17:46.644Z,21.52
2022-10-05T08:20:40.456Z,21.34
2022-10-05T08:23:25.194Z,21.25
2022-10-05T08:26:07.766Z,21.17
2022-10-05T08:28:47.027Z,21.24
2022-10-05T08:31:20.763Z,21.44
2022-10-05T08:34:16.836Z,21.25
2022-10-05T08:37:05.509Z,21.28
2022-10-05T08:39:40.910Z,21.51
2022-10-05T08:42:23.315Z,22.59
2022-10-05T08:45:09.143Z,23.32
2022-10-05T08:48:10.404Z,24.17
2022-10-05T08:50:40.995Z,23.93
2022-10-05T08:53:47.171Z,22.94
2022-10-05T08:56:22.255Z,22.58
2022-10-05T08:59:17.878Z,22.32
2022-10-05T09:02:03.985Z,22.58
2022-10-05T09:04:40.027Z,22.56
2022-10-05T09:07:07.244Z,22.86
2022-10-05T09:10:06.473Z,22.83
2022-10-05T09:13:08.990Z,22.79
2022-10-05T09:15:51.083Z,22.70
2022-10-05T09:18:55.571Z,23.08
2022-10-05T09:21:44.761Z,22.75
2022-10-05T09:24:12.351Z,23.05
2022-10-05T09:26:42.493Z,23.65
2022-10-05T09:29:33.981Z,23.77
2022-10-05T09:32:34.882Z,23.53
2022-10-05T09:35:21.608Z,24.17
2022-10-05T09:38:08.346Z,23.29
2022-10-05T09:40:57.457Z,23.05
2022-10-05T09:44:02.274Z,22.77
2022-10-05T09:46:56.085Z,22.34
2022-10-05T09:49:36.508Z,22.34
2022-10-05T09:52:19.186Z,22.16
2022-10-05T09:55:31.193Z,22.81
2022-10-05T09:58:20.342Z,23.10
2022-10-05T10:01:36.499Z,23.22
2022-10-05T10:04:26.609Z,23.35
2022-10-05T10:07:25.776Z,23.45
2022-10-05T10:10:13.925Z,23.43
2022-10-05T10:12:57.143Z,23.90
2022-10-05T10:15:52.666Z,24.09
2022-10-05T10:18:52.447Z,24.33
2022-10-05T10:21:42.378Z,24.71
2022-10-05T10:24:18.426Z,25.03
2022-10-05T10:27:04.543Z,25.35
2022-10-05T10:29:50.550Z,25.13
2022-10-05T10:32:46.950Z,25.19
2022-10-05T10:35:33.701Z,25.33
2022-10-05T10:38:27.693Z,25.56
2022-10-05T10:41:19.364Z,25.40
2022-10-05T10:44:22.364Z,24.60
2022-10-05T10:46:59.408Z,24.11
2022-10-05T10:49:32.620Z,23.93
2022-10-05T10:52:19.577Z,23.89
2022-10-05T10:54:46.793Z,23.92
2022-10-05T10:57:51.433Z,23.58
2022-10-05T11:00:30.626Z,23.13
2022-10-05T11:03:13.574Z,22.81
2022-10-05T11:06:20.958Z,22.44
2022-10-05T11:08:57.002Z,22.43
2022-10-05T11:11:24.296Z,22.79
2022-10-05T11:14:27.793Z,22.76
2022-10-05T11:16:57.706Z,22.65
2022-10-05T11:20:05.208Z,23.02
2022-10-05T11:22:45.925Z,23.51
2022-10-05T11:25:19.012Z,23.43
2022-10-05T11:28:14.275Z,23.18
2022-10-05T11:30:41.622Z,23.27
2022-10-05T11:33:30.909Z,23.49
2022-10-05T11:36:29.339Z,22.95
2022-10-05T11:39:05.972Z,22.78
2022-10-05T11:41:44.306Z,22.50
2022-10-05T11:44:15.412Z,22.44
2022-10-05T11:47:15.749Z,22.29
2022-10-05T11:49:58.129Z,22.20
2022-10-05T11:52:43.820Z,22.13
2022-10-05T11:55:32.906Z,22.10
2022-10-05T11:58:20.229Z,22.00
2022-10-05T12:01:07.063Z,21.81
2022-10-05T12:03:43.089Z,21.84
2022-10-05T12:06:47.465Z,21.75
2022-10-05T12:09:36.510Z,21.74
2022-10-05T12:12:27.057Z,21.67
2022-10-05T12:15:25.329Z,21.78
2022-10-05T12:18:01.878Z,21.84
2022-10-05T12:20:35.019Z,21.80
2022-10-05T12:23:39.361Z,21.77
2022-10-05T12:26:20.512Z,21.84
2022-10-05T12:28:52.059Z,21.74
2022-10-05T12:31:44.275Z,21.71
2022-10-05T12:34:17.980Z,21.65
2022-10-05T12:37:16.913Z,21.70
2022-10-05T12:40:06.195Z,21.70
2022-10-05T12:42:41.879Z,21.77
2022-10-05T12:45:29.298Z,21.82
2022-10-05T12:48:18.798Z,21.79
2022-10-05T12:51:11.895Z,21.95
2022-10-05T12:54:00.236Z,22.07
2022-10-05T12:56:59.160Z,22.21
2022-10-05T12:59:44.604Z,22.32
2022-10-05T13:02:20.812Z,22.32
2022-10-05T13:04:56.489Z,22.35
2022-10-05T13:07:31.985Z,22.55
2022-10-05T13:10:02.025Z,22.59
2022-10-05T13:12:51.018Z,22.74
2022-10-05T13:15:30.283Z,22.62
2022-10-05T13:18:16.141Z,22.64
2022-10-05T13:21:14.003Z,22.96
2022-10-05T13:23:57.210Z,22.98
2022-10-05T13:26:48.557Z,22.87
2022-10-05T13:29:33.178Z,22.92
2022-10-05T13:32:09.637Z,22.81
2022-10-05T13:34:47.132Z,22.81
2022-10-05T13:37:33.894Z,22.65
2022-10-05T13:40:32.429Z,22.90
2022-10-05T13:43:14.516Z,22.88
2022-10-05T13:46:03.033Z,22.65
2022-10-05T13:48:59.346Z,22.52
2022-10-05T13:51:54.341Z,22.62
2022-10-05T13:54:48.098Z,22.60
2022-10-05T13:57:46.305Z,22.68
2022-10-05T14:00:26.401Z,22.82
2022-10-05T14:02:58.104Z,22.59
2022-10-05T14:05:27.890Z,22.93
2022-10-05T14:08:04.275Z,22.73
2022-10-05T14:10:43.646Z,22.73
2022-10-05T14:13:35.070Z,22.65
2022-10-05T14:16:24.885Z,22.72
2022-10-05T14:19:18.547Z,22.66
2022-10-05T14:22:11.268Z,22.67
2022-10-05T14:25:18.085Z,22.82
2022-10-05T14:28:23.983Z,23.11
2022-10-05T14:30:59.445Z,23.04
2022-10-05T14:33:29.870Z,22.74
2022-10-05T14:35:58.717Z,22.69
2022-10-05T14:38:46.796Z,22.58
2022-10-05T14:41:28.719Z,22.54
2022-10-05T14:44:28.052Z,22.58
2022-10-05T14:47:04.393Z,22.40
2022-10-05T14:49:36.194Z,22.19
2022-10-05T14:52:32.371Z,22.27
2022-10-05T14:55:17.728Z,22.19
2022-10-05T14:58:09.117Z,22.19
2022-10-05T15:00:56.970Z,21.98
2022-10-05T15:03:50.960Z,22.06
2022-10-05T15:06:54.701Z,21.95
2022-10-05T15:10:14.168Z,21.98
2022-10-05T15:12:46.736Z,22.13
2022-10-05T15:15:27.094Z,22.08
2022-10-05T15:18:00.439Z,22.07
2022-10-05T15:20:45.812Z,21.97
2022-10-05T15:23:26.299Z,21.92
2022-10-05T15:26:14.242Z,21.97
2022-10-05T15:29:02.868Z,21.96
2022-10-05T15:31:52.086Z,21.92
2022-10-05T15:34:36.853Z,22.00
2022-10-05T15:37:25.865Z,22.02
2022-10-05T15:39:58.996Z,21.98
2022-10-05T15:42:38.244Z,22.02
2022-10-05T15:45:32.322Z,22.00
2022-10-05T15:48:04.978Z,21.97
2022-10-05T15:50:58.134Z,21.97
2022-10-05T15:53:34.805Z,21.95
2022-10-05T15:56:36.114Z,21.97
2022-10-05T15:59:30.589Z,21.85
2022-10-05T16:02:04.503Z,21.80
2022-10-05T16:04:43.702Z,21.77
2022-10-05T16:07:55.302Z,21.69
2022-10-05T16:10:26.344Z,21.67
2022-10-05T16:13:02.576Z,21.62
2022-10-05T16:15:41.311Z,21.45
2022-10-05T16:18:12.140Z,21.33
2022-10-05T16:20:57.055Z,21.17
2022-10-05T16:23:50.300Z,21.09
2022-10-05T16:26:42.328Z,20.92
2022-10-05T16:29:35.591Z,20.86
2022-10-05T16:32:26.246Z,20.69
2022-10-05T16:34:54.236Z,20.58
2022-10-05T16:37:41.031Z,20.47
2022-10-05T16:40:33.070Z,20.44
2022-10-05T16:43:33.490Z,20.38
2022-10-05T16:46:22.602Z,20.37
2022-10-05T16:49:03.111Z,20.48
2022-10-05T16:51:45.488Z,20.46
2022-10-05T16:54:26.053Z,20.44
2022-10-05T16:57:09.770Z,20.40
2022-10-05T16:59:49.174Z,20.41
2022-10-05T17:02:51.690Z,20.35
2022-10-05T17:05:29.500Z,20.32
2022-10-05T17:08:17.906Z,20.37
2022-10-05T17:11:11.309Z,20.33
2022-10-05T17:14:17.665Z,20.35
2022-10-05T17:16:51.262Z,20.40
2022-10-05T17:19:38.587Z,20.41
2022-10-05T17:22:14.584Z,20.45
2022-10-05T17:24:50.988Z,20.48
2022-10-05T17:27:31.895Z,20.47
2022-10-05T17:30:19.547Z,20.48
2022-10-05T17:33:29.053Z,20.48
2022-10-05T17:36:16.879Z,20.42
2022-10-05T17:38:48.812Z,20.41
2022-10-05T17:41:24.848Z,20.43
2022-10-05T17:44:19.030Z,20.35
2022-10-05T17:46:54.895Z,20.40
2022-10-05T17:49:25.876Z,20.39
2022-10-05T17:52:11.678Z,20.35
2022-10-05T17:55:03.699Z,20.24
2022-10-05T17:57:32.081Z,20.29
2022-10-05T18:00:02.322Z,20.25
2022-10-05T18:02:36.194Z,20.25
2022-10-05T18:05:04.547Z,20.29
2022-10-05T18:07:34.560Z,20.35
2022-10-05T18:10:17.209Z,20.06
2022-10-05T18:12:59.534Z,20.06
2022-10-05T18:15:26.866Z,20.03
2022-10-05T18:18:38.803Z,20.03
2022-10-05T18:21:23.084Z,19.92
2022-10-05T18:23:59.670Z,19.71
2022-10-05T18:26:53.068Z,19.66
2022-10-05T18:29:48.114Z,19.51
2022-10-05T18:32:52.214Z,19.42
2022-10-05T18:35:38.063Z,19.38
2022-10-05T18:38:30.276Z,19.27
2022-10-05T18:41:44.483Z,19.26
2022-10-05T18:44:14.290Z,19.05
2022-10-05T18:47:09.309Z,18.96
2022-10-05T18:50:10.420Z,18.90
2022-10-05T18:52:55.068Z,18.91
2022-10-05T18:55:32.996Z,18.91
2022-10-05T18:58:26.020Z,18.89
2022-10-05T19:01:39.073Z,18.85
2022-10-05T19:04:12.586Z,18.83
2022-10-05T19:06:56.955Z,18.75
2022-10-05T19:09:46.988Z,18.64
2022-10-05T19:12:26.186Z,18.61
2022-10-05T19:14:59.472Z,18.62
2022-10-05T19:17:52.035Z,18.60
2022-10-05T19:20:19.355Z,18.56
2022-10-05T19:22:52.658Z,18.50
2022-10-05T19:25:39.932Z,18.49
2022-10-05T19:28:31.746Z,18.43
2022-10-05T19:31:18.665Z,18.45
2022-10-05T19:33:53.822Z,18.44
2022-10-05T19:36:59.668Z,18.46
2022-10-05T19:40:04.553Z,18.42
2022-10-05T19:42:45.221Z,18.32
2022-10-05T19:45:22.696Z,18.27
2022-10-05T19:48:14.491Z,18.25
2022-10-05T19:50:54.724Z,18.22
2022-10-05T19:53:37.010Z,18.11
2022-10-05T19:56:17.470Z,18.11
2022-10-05T19:58:45.018Z,18.13
2022-10-05T20:01:24.716Z,18.12
2022-10-05T20:03:53.329Z,18.19
2022-10-05T20:06:25.190Z,18.17
2022-10-05T20:09:00.468Z,18.02
2022-10-05T20:11:29.133Z,18.00
2022-10-05T20:13:59.734Z,17.97
2022-10-05T20:16:50.789Z,17.91
2022-10-05T20:19:51.767Z,17.84
2022-10-05T20:22:43.185Z,17.89
2022-10-05T20:25:19.351Z,17.81
2022-10-05T20:27:55.577Z,17.78
2022-10-05T20:30:25.913Z,17.72
2022-10-05T20:32:59.677Z,17.66
2022-10-05T20:35:31.979Z,17.58
2022-10-05T20:37:59.900Z,17.50
2022-10-05T20:40:29.233Z,17.52
2022-10-05T20:42:58.372Z,17.48
2022-10-05T20:45:25.867Z,17.49
2022-10-05T20:47:53.134Z,17.53
2022-10-05T20:50:22.211Z,17.54
2022-10-05T20:52:49.580Z,17.52
2022-10-05T20:55:17.046Z,17.51
2022-10-05T20:57:46.070Z,17.48
2022-10-05T21:00:13.899Z,17.39
2022-10-05T21:02:41.238Z,17.29
2022-10-05T21:05:08.910Z,17.28
2022-10-05T21:07:36.432Z,17.29
2022-10-05T21:10:04.040Z,17.28
2022-10-05T21:12:33.974Z,17.22
2022-10-05T21:15:01.505Z,17.26
2022-10-05T21:17:28.831Z,17.27
2022-10-05T21:19:56.187Z,17.30
2022-10-05T21:22:23.644Z,17.30
2022-10-05T21:24:50.905Z,17.21
2022-10-05T21:27:18.281Z,17.22
2022-10-05T21:29:46.158Z,17.22
2022-10-05T21:32:13.451Z,17.19
2022-10-05T21:34:41.513Z,17.19
2022-10-05T21:37:09.107Z,17.19
2022-10-05T21:39:36.769Z,17.22
2022-10-05T21:42:04.486Z,17.19
2022-10-05T21:44:31.805Z,17.21
2022-10-05T21:46:59.211Z,17.15
2022-10-05T21:49:27.708Z,17.16
2022-10-05T21:51:55.315Z,17.18
2022-10-05T21:54:23.748Z,17.06
2022-10-05T21:56:54.758Z,17.12
2022-10-05T21:59:26.603Z,17.16
2022-10-05T22:01:54.029Z,17.19
2022-10-05T22:04:21.303Z,17.21
2022-10-05T22:06:49.242Z,17.04
2022-10-05T22:09:16.511Z,17.10
2022-10-05T22:11:47.521Z,17.13
2022-10-05T22:14:15.589Z,17.07
2022-10-05T22:16:44.098Z,17.00
2022-10-05T22:19:18.106Z,16.95
2022-10-05T22:21:45.496Z,16.93
2022-10-05T22:24:12.727Z,16.99
2022-10-05T22:26:43.590Z,17.08
2022-10-05T22:29:11.092Z,17.08
2022-10-05T22:31:39.251Z,17.01
2022-10-05T22:34:06.741Z,16.98
2022-10-05T22:36:37.557Z,16.88
2022-10-05T22:39:04.909Z,16.91
2022-10-05T22:41:32.275Z,16.96
2022-10-05T22:44:00.566Z,17.01
2022-10-05T22:46:27.914Z,17.02
2022-10-05T22:48:55.218Z,16.85
2022-10-05T22:51:23.672Z,16.83
2022-10-05T22:53:50.974Z,16.79
2022-10-05T22:56:18.384Z,16.78
2022-10-05T22:58:46.157Z,16.64
2022-10-05T23:01:16.371Z,16.56
2022-10-05T23:03:44.313Z,16.56
2022-10-05T23:06:17.849Z,16.58
2022-10-05T23:08:46.053Z,16.52
2022-10-05T23:11:16.355Z,16.56
2022-10-05T23:13:44.271Z,16.59
2022-10-05T23:16:16.888Z,16.70
2022-10-05T23:18:44.966Z,16.60
2022-10-05T23:21:13.513Z,16.57
2022-10-05T23:23:43.583Z,16.62
2022-10-05T23:26:11.631Z,16.60
2022-10-05T23:28:46.537Z,16.70
2022-10-05T23:31:17.487Z,16.76
2022-10-05T23:33:45.224Z,16.78
2022-10-05T23:36:15.830Z,16.78
2022-10-05T23:38:43.515Z,16.72
2022-10-05T23:41:11.155Z,16.66
2022-10-05T23:43:38.823Z,16.68
2022-10-05T23:46:07.432Z,16.54
2022-10-05T23:48:37.968Z,16.46
2022-10-05T23:51:07.549Z,16.48
2022-10-05T23:53:35.317Z,16.53
2022-10-05T23:56:02.667Z,16.54
2022-10-05T23:58:30.340Z,16.57
